createdAt,value
2018-05-25T00:00:49.174Z,10.20
2018-05-25T00:02:42.038Z,9.90
2018-05-25T00:03:41.914Z,10.20
2018-05-25T00:05:34.769Z,10.80
2018-05-25T00:06:34.693Z,9.90
2018-05-25T00:08:27.550Z,10.60
2018-05-25T00:09:27.431Z,9.90
2018-05-25T00:11:20.265Z,10.10
2018-05-25T00:12:20.181Z,9.90
2018-05-25T00:14:13.053Z,9.90
2018-05-25T00:15:12.929Z,10.20
2018-05-25T00:17:05.795Z,8.90
2018-05-25T00:18:05.691Z,10.20
2018-05-25T00:19:59.578Z,9.30
2018-05-25T00:20:58.928Z,9.90
2018-05-25T00:22:51.821Z,9.90
2018-05-25T00:23:51.680Z,9.50
2018-05-25T00:25:45.138Z,9.40
2018-05-25T00:26:44.959Z,9.20
2018-05-25T00:28:37.811Z,9.50
2018-05-25T00:29:37.687Z,9.70
2018-05-25T00:31:30.463Z,8.70
2018-05-25T00:32:30.359Z,8.90
2018-05-25T00:34:23.186Z,8.70
2018-05-25T00:35:23.107Z,9.10
2018-05-25T00:37:15.949Z,9.10
2018-05-25T00:38:15.833Z,8.70
2018-05-25T00:40:08.585Z,8.60
2018-05-25T00:41:08.491Z,8.50
2018-05-25T00:43:01.243Z,7.90
2018-05-25T00:44:01.141Z,8.20
2018-05-25T00:45:53.941Z,7.90
2018-05-25T00:46:53.797Z,7.80
2018-05-25T00:48:46.684Z,7.90
2018-05-25T00:49:46.566Z,7.70
2018-05-25T00:51:39.264Z,7.90
2018-05-25T00:52:39.193Z,7.80
2018-05-25T00:54:33.070Z,7.60
2018-05-25T00:55:32.861Z,7.30
2018-05-25T00:57:25.692Z,7.30
2018-05-25T00:58:25.594Z,7.10
2018-05-25T01:00:18.454Z,7.20
2018-05-25T01:01:18.344Z,7.80
2018-05-25T01:03:11.102Z,7.10
2018-05-25T01:04:10.987Z,7.50
2018-05-25T01:06:04.258Z,6.80
2018-05-25T01:07:04.153Z,6.90
2018-05-25T01:08:56.908Z,7.00
2018-05-25T01:09:56.809Z,6.80
2018-05-25T01:11:49.665Z,6.70
2018-05-25T01:12:49.542Z,6.70
2018-05-25T01:14:42.306Z,6.30
2018-05-25T01:15:42.335Z,7.00
2018-05-25T01:17:35.122Z,6.90
2018-05-25T01:18:34.948Z,6.70
2018-05-25T01:20:27.788Z,7.40
2018-05-25T01:21:27.701Z,7.00
2018-05-25T01:23:20.615Z,6.80
2018-05-25T01:24:20.446Z,7.00
2018-05-25T01:26:13.311Z,7.40
2018-05-25T01:27:13.230Z,7.50
2018-05-25T01:29:06.081Z,7.40
2018-05-25T01:30:05.941Z,7.30
2018-05-25T01:31:59.196Z,7.70
2018-05-25T01:32:59.130Z,7.40
2018-05-25T01:34:51.986Z,7.40
2018-05-25T01:35:51.850Z,8.00
2018-05-25T01:37:44.597Z,7.60
2018-05-25T01:38:44.492Z,7.20
2018-05-25T01:40:37.260Z,7.40
2018-05-25T01:41:37.179Z,7.20
2018-05-25T01:43:29.919Z,7.50
2018-05-25T01:44:29.801Z,6.90
2018-05-25T01:46:22.706Z,6.90
2018-05-25T01:47:22.537Z,7.20
2018-05-25T01:49:15.285Z,7.20
2018-05-25T01:50:15.185Z,8.20
2018-05-25T01:52:07.965Z,8.40
2018-05-25T01:53:07.842Z,8.50
2018-05-25T01:55:00.575Z,8.80
2018-05-25T01:56:00.480Z,8.30
2018-05-25T01:57:53.259Z,8.30
2018-05-25T01:58:53.132Z,7.80
2018-05-25T02:00:45.982Z,7.40
2018-05-25T02:01:45.881Z,7.60
2018-05-25T02:03:38.638Z,8.00
2018-05-25T02:04:38.526Z,7.20
2018-05-25T02:06:31.271Z,6.80
2018-05-25T02:07:31.176Z,7.10
2018-05-25T02:09:23.929Z,6.60
2018-05-25T02:10:23.818Z,7.00
2018-05-25T02:12:16.708Z,6.50
2018-05-25T02:13:16.564Z,6.70
2018-05-25T02:15:09.353Z,6.40
2018-05-25T02:16:09.237Z,5.90
2018-05-25T02:18:02.082Z,6.10
2018-05-25T02:19:01.963Z,5.80
2018-05-25T02:20:54.809Z,5.80
2018-05-25T02:21:54.746Z,5.90
2018-05-25T02:23:47.479Z,5.70
2018-05-25T02:24:47.391Z,6.00
2018-05-25T02:26:40.203Z,6.00
2018-05-25T02:27:40.114Z,5.80
2018-05-25T02:29:33.217Z,6.10
2018-05-25T02:30:32.786Z,6.10
2018-05-25T02:32:25.634Z,5.90
2018-05-25T02:33:25.508Z,6.00
2018-05-25T02:35:18.379Z,6.00
2018-05-25T02:36:18.253Z,6.20
2018-05-25T02:38:10.999Z,5.60
2018-05-25T02:39:10.943Z,6.10
2018-05-25T02:41:03.663Z,6.00
2018-05-25T02:42:03.564Z,6.20
2018-05-25T02:43:56.440Z,6.40
2018-05-25T02:44:56.292Z,6.40
2018-05-25T02:46:49.147Z,6.50
2018-05-25T02:47:49.079Z,6.80
2018-05-25T02:49:43.451Z,6.80
2018-05-25T02:50:43.336Z,6.60
2018-05-25T02:52:36.190Z,6.80
2018-05-25T02:53:36.093Z,7.20
2018-05-25T02:55:29.363Z,6.70
2018-05-25T02:56:29.253Z,7.10
2018-05-25T02:58:22.093Z,7.20
2018-05-25T02:59:22.012Z,7.60
2018-05-25T03:01:14.843Z,7.40
2018-05-25T03:02:14.780Z,7.70
2018-05-25T03:04:07.588Z,7.60
2018-05-25T03:05:07.513Z,7.30
2018-05-25T03:07:00.292Z,7.30
2018-05-25T03:08:00.142Z,7.90
2018-05-25T03:09:52.980Z,7.90
2018-05-25T03:10:52.896Z,7.70
2018-05-25T03:12:45.749Z,7.20
2018-05-25T03:13:45.647Z,6.90
2018-05-25T03:15:38.900Z,7.10
2018-05-25T03:16:38.830Z,7.00
2018-05-25T03:18:31.702Z,7.00
2018-05-25T03:19:31.571Z,6.80
2018-05-25T03:21:24.574Z,6.10
2018-05-25T03:22:24.433Z,6.50
2018-05-25T03:24:17.388Z,6.60
2018-05-25T03:25:17.298Z,6.60
2018-05-25T03:27:10.105Z,6.50
2018-05-25T03:28:10.002Z,6.80
2018-05-25T03:30:02.752Z,6.50
2018-05-25T03:31:02.699Z,5.80
2018-05-25T03:32:55.548Z,5.80
2018-05-25T03:33:55.404Z,5.90
2018-05-25T03:35:48.267Z,5.60
2018-05-25T03:36:48.177Z,5.90
2018-05-25T03:38:41.042Z,5.90
2018-05-25T03:39:40.931Z,5.80
2018-05-25T03:41:33.764Z,5.80
2018-05-25T03:42:33.650Z,5.50
2018-05-25T03:44:26.419Z,5.70
2018-05-25T03:45:26.326Z,5.70
2018-05-25T03:47:19.148Z,5.20
2018-05-25T03:48:19.046Z,5.70
2018-05-25T03:50:12.322Z,6.20
2018-05-25T03:51:12.205Z,6.50
2018-05-25T03:53:05.049Z,5.40
2018-05-25T03:54:04.988Z,5.30
2018-05-25T03:55:57.730Z,5.00
2018-05-25T03:56:57.599Z,5.40
2018-05-25T03:58:50.535Z,4.90
2018-05-25T03:59:50.349Z,5.20
2018-05-25T04:01:43.238Z,5.20
2018-05-25T04:02:43.005Z,5.30
2018-05-25T04:04:35.853Z,5.20
2018-05-25T04:05:35.740Z,5.30
2018-05-25T04:07:28.493Z,5.40
2018-05-25T04:08:28.410Z,5.40
2018-05-25T04:10:21.152Z,5.50
2018-05-25T04:11:21.062Z,5.20
2018-05-25T04:13:13.907Z,5.70
2018-05-25T04:14:13.856Z,6.00
2018-05-25T04:16:06.673Z,6.00
2018-05-25T04:17:06.624Z,5.90
2018-05-25T04:18:59.836Z,5.90
2018-05-25T04:19:59.748Z,6.00
2018-05-25T04:21:52.556Z,6.30
2018-05-25T04:22:52.453Z,5.90
2018-05-25T04:24:45.240Z,6.60
2018-05-25T04:25:45.108Z,7.40
2018-05-25T04:27:37.963Z,7.00
2018-05-25T04:28:37.867Z,7.00
2018-05-25T04:30:30.735Z,6.60
2018-05-25T04:31:30.501Z,6.90
2018-05-25T04:33:23.339Z,6.50
2018-05-25T04:34:23.258Z,6.60
2018-05-25T04:36:16.098Z,6.20
2018-05-25T04:37:15.993Z,6.70
2018-05-25T04:39:08.743Z,6.20
2018-05-25T04:40:08.652Z,6.20
2018-05-25T04:42:01.407Z,6.40
2018-05-25T04:43:01.299Z,6.10
2018-05-25T04:44:54.129Z,6.10
2018-05-25T04:45:54.050Z,6.10
2018-05-25T04:47:46.900Z,6.40
2018-05-25T04:48:46.790Z,6.30
2018-05-25T04:50:39.543Z,7.00
2018-05-25T04:51:39.438Z,6.20
2018-05-25T04:53:32.326Z,6.60
2018-05-25T04:54:32.188Z,6.70
2018-05-25T04:56:25.035Z,7.80
2018-05-25T04:57:24.941Z,7.20
2018-05-25T04:59:17.794Z,6.80
2018-05-25T05:00:17.693Z,6.80
2018-05-25T05:02:10.452Z,7.00
2018-05-25T05:03:10.345Z,6.90
2018-05-25T05:05:03.199Z,7.20
2018-05-25T05:06:03.033Z,7.10
2018-05-25T05:07:55.817Z,7.10
2018-05-25T05:08:55.733Z,6.90
2018-05-25T05:10:48.513Z,6.70
2018-05-25T05:11:48.380Z,7.20
2018-05-25T05:13:41.324Z,6.50
2018-05-25T05:14:41.242Z,6.80
2018-05-25T05:16:33.985Z,6.00
2018-05-25T05:17:33.893Z,5.90
2018-05-25T05:19:26.757Z,6.00
2018-05-25T05:20:26.639Z,6.40
2018-05-25T05:22:19.476Z,6.00
2018-05-25T05:23:19.385Z,6.40
2018-05-25T05:25:12.245Z,6.50
2018-05-25T05:26:12.128Z,5.80
2018-05-25T05:28:04.983Z,6.50
2018-05-25T05:29:04.879Z,6.00
2018-05-25T05:30:57.725Z,6.20
2018-05-25T05:31:57.623Z,6.10
2018-05-25T05:33:50.472Z,6.20
2018-05-25T05:34:50.371Z,6.10
2018-05-25T05:36:43.231Z,6.10
2018-05-25T05:37:43.129Z,6.20
2018-05-25T05:39:35.876Z,5.90
2018-05-25T05:40:35.773Z,5.90
2018-05-25T05:42:28.625Z,6.00
2018-05-25T05:43:28.532Z,6.30
2018-05-25T05:45:21.372Z,5.90
2018-05-25T05:46:21.264Z,6.20
2018-05-25T05:48:14.143Z,6.10
2018-05-25T05:49:14.025Z,6.10
2018-05-25T05:51:06.874Z,5.90
2018-05-25T05:52:06.760Z,5.80
2018-05-25T05:54:00.134Z,6.00
2018-05-25T05:54:59.924Z,5.80
2018-05-25T05:56:52.798Z,6.00
2018-05-25T05:57:52.687Z,5.90
2018-05-25T05:59:45.526Z,5.60
2018-05-25T06:00:45.441Z,6.10
2018-05-25T06:02:38.295Z,5.80
2018-05-25T06:03:38.196Z,5.90
2018-05-25T06:05:31.025Z,5.90
2018-05-25T06:06:30.918Z,6.00
2018-05-25T06:08:23.684Z,5.80
2018-05-25T06:09:23.582Z,6.00
2018-05-25T06:11:16.454Z,5.50
2018-05-25T06:12:16.316Z,6.00
2018-05-25T06:14:09.184Z,6.00
2018-05-25T06:15:09.082Z,5.70
2018-05-25T06:17:02.844Z,5.90
2018-05-25T06:18:02.744Z,6.30
2018-05-25T06:19:56.258Z,5.90
2018-05-25T06:20:56.103Z,6.20
2018-05-25T06:22:48.960Z,6.20
2018-05-25T06:23:48.880Z,6.00
2018-05-25T06:25:41.723Z,6.00
2018-05-25T06:26:41.645Z,6.30
2018-05-25T06:28:34.467Z,5.90
2018-05-25T06:29:34.372Z,6.50
2018-05-25T06:31:27.205Z,6.30
2018-05-25T06:32:27.115Z,6.30
2018-05-25T06:34:20.463Z,6.40
2018-05-25T06:35:20.382Z,6.20
2018-05-25T06:37:13.198Z,6.20
2018-05-25T06:38:13.116Z,6.10
2018-05-25T06:40:05.890Z,6.10
2018-05-25T06:41:05.766Z,6.30
2018-05-25T06:42:58.607Z,6.50
2018-05-25T06:43:58.509Z,6.40
2018-05-25T06:45:51.369Z,6.00
2018-05-25T06:46:51.270Z,6.00
2018-05-25T06:48:44.110Z,6.20
2018-05-25T06:49:44.012Z,6.40
2018-05-25T06:51:36.881Z,6.10
2018-05-25T06:52:36.774Z,6.10
2018-05-25T06:54:29.627Z,6.30
2018-05-25T06:55:29.526Z,6.00
2018-05-25T06:57:22.782Z,6.30
2018-05-25T06:58:22.693Z,6.30
2018-05-25T07:00:15.528Z,6.20
2018-05-25T07:01:15.415Z,6.10
2018-05-25T07:03:08.305Z,6.00
2018-05-25T07:04:08.169Z,6.40
2018-05-25T07:06:01.025Z,6.50
2018-05-25T07:07:00.931Z,6.40
2018-05-25T07:08:53.768Z,6.70
2018-05-25T07:09:53.665Z,6.50
2018-05-25T07:11:46.524Z,6.40
2018-05-25T07:12:46.436Z,6.40
2018-05-25T07:14:39.277Z,6.40
2018-05-25T07:15:39.189Z,6.10
2018-05-25T07:17:32.021Z,6.40
2018-05-25T07:18:31.916Z,6.40
2018-05-25T07:20:24.773Z,6.40
2018-05-25T07:21:24.661Z,6.40
2018-05-25T07:23:17.520Z,6.20
2018-05-25T07:24:17.428Z,6.70
2018-05-25T07:26:10.782Z,6.10
2018-05-25T07:27:10.161Z,6.60
2018-05-25T07:29:03.038Z,6.60
2018-05-25T07:30:02.921Z,6.60
2018-05-25T07:31:55.909Z,7.20
2018-05-25T07:32:55.665Z,6.80
2018-05-25T07:34:48.523Z,6.30
2018-05-25T07:35:48.441Z,6.60
2018-05-25T07:37:41.274Z,6.50
2018-05-25T07:38:41.162Z,6.60
2018-05-25T07:40:34.009Z,6.80
2018-05-25T07:41:33.915Z,6.80
2018-05-25T07:43:26.781Z,6.50
2018-05-25T07:44:26.671Z,6.70
2018-05-25T07:46:19.512Z,6.70
2018-05-25T07:47:19.427Z,6.10
2018-05-25T07:49:12.281Z,6.40
2018-05-25T07:50:12.163Z,7.00
2018-05-25T07:52:05.003Z,6.80
2018-05-25T07:53:04.913Z,6.70
2018-05-25T07:54:57.799Z,6.40
2018-05-25T07:55:57.769Z,6.60
2018-05-25T07:57:50.502Z,6.20
2018-05-25T07:58:50.422Z,7.00
2018-05-25T08:00:43.286Z,6.50
2018-05-25T08:01:43.168Z,6.40
2018-05-25T08:03:36.011Z,6.90
2018-05-25T08:04:35.907Z,6.70
2018-05-25T08:06:28.870Z,6.80
2018-05-25T08:07:28.678Z,6.90
2018-05-25T08:09:21.533Z,7.00
2018-05-25T08:10:21.405Z,6.60
2018-05-25T08:12:14.301Z,7.00
2018-05-25T08:13:14.222Z,6.80
2018-05-25T08:15:07.044Z,6.60
2018-05-25T08:16:06.907Z,7.10
2018-05-25T08:17:59.748Z,6.90
2018-05-25T08:18:59.687Z,7.10
2018-05-25T08:20:52.534Z,7.20
2018-05-25T08:21:52.560Z,7.50
2018-05-25T08:23:45.257Z,7.30
2018-05-25T08:24:45.171Z,6.90
2018-05-25T08:26:38.022Z,7.30
2018-05-25T08:27:37.951Z,7.30
2018-05-25T08:29:31.258Z,7.30
2018-05-25T08:30:31.174Z,7.00
2018-05-25T08:32:24.126Z,7.10
2018-05-25T08:33:24.023Z,7.10
2018-05-25T08:35:17.375Z,7.10
2018-05-25T08:36:16.774Z,6.80
2018-05-25T08:38:09.638Z,7.20
2018-05-25T08:39:09.524Z,6.90
2018-05-25T08:41:02.386Z,7.30
2018-05-25T08:42:02.266Z,6.80
2018-05-25T08:43:55.126Z,6.70
2018-05-25T08:44:55.019Z,7.00
2018-05-25T08:46:47.883Z,7.00
2018-05-25T08:47:47.771Z,7.00
2018-05-25T08:49:40.635Z,7.10
2018-05-25T08:50:40.519Z,7.10
2018-05-25T08:52:33.404Z,7.20
2018-05-25T08:53:33.272Z,7.00
2018-05-25T08:55:26.134Z,7.90
2018-05-25T08:56:26.012Z,7.70
2018-05-25T08:58:18.875Z,7.50
2018-05-25T08:59:18.766Z,6.90
2018-05-25T09:01:11.621Z,7.20
2018-05-25T09:02:11.520Z,7.00
2018-05-25T09:04:04.368Z,7.90
2018-05-25T09:05:04.284Z,7.10
2018-05-25T09:06:57.513Z,8.00
2018-05-25T09:07:57.446Z,7.60
2018-05-25T09:09:50.282Z,7.60
2018-05-25T09:10:50.181Z,7.50
2018-05-25T09:12:43.023Z,7.40
2018-05-25T09:13:42.929Z,7.50
2018-05-25T09:15:36.246Z,7.80
2018-05-25T09:16:36.124Z,7.60
2018-05-25T09:18:28.936Z,7.70
2018-05-25T09:19:28.849Z,8.00
2018-05-25T09:21:21.695Z,7.80
2018-05-25T09:22:21.600Z,7.90
2018-05-25T09:24:14.417Z,7.60
2018-05-25T09:25:14.338Z,8.50
2018-05-25T09:27:07.214Z,7.90
2018-05-25T09:28:07.104Z,7.40
2018-05-25T09:29:59.920Z,8.10
2018-05-25T09:30:59.863Z,8.30
2018-05-25T09:32:53.223Z,8.30
2018-05-25T09:33:53.116Z,8.20
2018-05-25T09:35:45.931Z,8.30
2018-05-25T09:36:45.848Z,8.20
2018-05-25T09:38:38.753Z,7.50
2018-05-25T09:39:38.597Z,6.80
2018-05-25T09:41:31.450Z,7.00
2018-05-25T09:42:31.342Z,6.90
2018-05-25T09:44:24.201Z,7.20
2018-05-25T09:45:24.115Z,7.10
2018-05-25T09:47:16.949Z,7.90
2018-05-25T09:48:16.838Z,6.90
2018-05-25T09:50:09.710Z,7.20
2018-05-25T09:51:09.768Z,6.70
2018-05-25T09:53:02.447Z,7.10
2018-05-25T09:54:02.348Z,7.10
2018-05-25T09:55:55.703Z,7.50
2018-05-25T09:56:55.618Z,7.20
2018-05-25T09:58:48.482Z,7.60
2018-05-25T09:59:48.362Z,7.70
2018-05-25T10:01:41.189Z,7.50
2018-05-25T10:02:41.105Z,7.20
2018-05-25T10:04:34.048Z,7.40
2018-05-25T10:05:33.954Z,6.70
2018-05-25T10:07:27.276Z,7.10
2018-05-25T10:08:27.230Z,6.80
2018-05-25T10:10:20.014Z,6.80
2018-05-25T10:11:19.889Z,6.80
2018-05-25T10:13:12.723Z,8.40
2018-05-25T10:14:12.660Z,7.40
2018-05-25T10:16:05.492Z,7.40
2018-05-25T10:17:05.381Z,7.50
2018-05-25T10:18:58.219Z,6.60
2018-05-25T10:19:58.131Z,7.00
2018-05-25T10:21:50.979Z,7.00
2018-05-25T10:22:50.870Z,6.80
2018-05-25T10:24:43.859Z,6.80
2018-05-25T10:25:43.612Z,7.10
2018-05-25T10:27:36.459Z,6.60
2018-05-25T10:28:36.379Z,6.70
2018-05-25T10:30:29.218Z,6.40
2018-05-25T10:31:29.103Z,7.00
2018-05-25T10:33:21.954Z,5.80
2018-05-25T10:34:21.870Z,6.30
2018-05-25T10:36:14.733Z,6.00
2018-05-25T10:37:14.620Z,6.00
2018-05-25T10:39:07.466Z,6.00
2018-05-25T10:40:07.383Z,6.20
2018-05-25T10:42:00.226Z,6.00
2018-05-25T10:43:00.127Z,6.00
2018-05-25T10:44:52.944Z,6.90
2018-05-25T10:45:52.858Z,5.90
2018-05-25T10:47:45.741Z,6.40
2018-05-25T10:48:45.652Z,6.60
2018-05-25T10:50:38.445Z,5.70
2018-05-25T10:51:38.363Z,6.30
2018-05-25T10:53:31.209Z,6.10
2018-05-25T10:54:31.121Z,6.10
2018-05-25T10:56:24.073Z,5.70
2018-05-25T10:57:23.969Z,5.60
2018-05-25T10:59:16.821Z,5.70
2018-05-25T11:00:16.724Z,6.10
2018-05-25T11:02:09.579Z,5.40
2018-05-25T11:03:09.460Z,5.40
2018-05-25T11:05:02.317Z,5.10
2018-05-25T11:06:02.205Z,5.10
2018-05-25T11:07:55.068Z,4.80
2018-05-25T11:08:54.971Z,5.20
2018-05-25T11:10:47.792Z,5.30
2018-05-25T11:11:47.713Z,5.10
2018-05-25T11:13:40.566Z,5.10
2018-05-25T11:14:40.466Z,5.40
2018-05-25T11:16:33.304Z,5.40
2018-05-25T11:17:33.210Z,5.60
2018-05-25T11:19:26.060Z,4.90
2018-05-25T11:20:25.956Z,4.70
2018-05-25T11:22:18.840Z,4.60
2018-05-25T11:23:18.726Z,5.10
2018-05-25T11:25:11.575Z,5.10
2018-05-25T11:26:11.491Z,4.80
2018-05-25T11:28:04.307Z,5.50
2018-05-25T11:29:04.212Z,5.20
2018-05-25T11:30:57.045Z,5.30
2018-05-25T11:31:56.960Z,4.80
2018-05-25T11:33:49.821Z,4.50
2018-05-25T11:34:49.710Z,4.80
2018-05-25T11:36:42.587Z,4.30
2018-05-25T11:37:42.481Z,4.60
2018-05-25T11:39:35.346Z,4.60
2018-05-25T11:40:35.214Z,4.40
2018-05-25T11:42:28.569Z,4.10
2018-05-25T11:43:28.466Z,4.50
2018-05-25T11:45:21.351Z,4.50
2018-05-25T11:46:21.243Z,4.20
2018-05-25T11:48:14.049Z,4.30
2018-05-25T11:49:13.973Z,4.60
2018-05-25T11:51:06.814Z,4.40
2018-05-25T11:52:06.717Z,4.30
2018-05-25T11:53:59.556Z,4.10
2018-05-25T11:54:59.482Z,4.30
2018-05-25T11:56:52.333Z,4.20
2018-05-25T11:57:52.261Z,4.40
2018-05-25T11:59:45.195Z,4.10
2018-05-25T12:00:45.090Z,4.10
2018-05-25T12:02:37.916Z,4.40
2018-05-25T12:03:37.836Z,4.30
2018-05-25T12:05:30.669Z,4.30
2018-05-25T12:06:30.600Z,3.90
2018-05-25T12:08:23.451Z,3.90
2018-05-25T12:09:23.322Z,3.70
2018-05-25T12:11:16.194Z,3.80
2018-05-25T12:12:16.101Z,4.10
2018-05-25T12:14:08.902Z,3.70
2018-05-25T12:15:08.822Z,3.80
2018-05-25T12:17:02.220Z,3.60
2018-05-25T12:18:01.574Z,3.60
2018-05-25T12:19:54.425Z,3.60
2018-05-25T12:20:54.325Z,3.60
2018-05-25T12:22:47.376Z,4.10
2018-05-25T12:23:47.375Z,4.10
2018-05-25T12:25:40.128Z,3.80
2018-05-25T12:26:40.049Z,3.70
2018-05-25T12:28:32.897Z,3.80
2018-05-25T12:29:32.816Z,4.00
2018-05-25T12:31:25.622Z,3.70
2018-05-25T12:32:25.555Z,4.00
2018-05-25T12:34:18.485Z,4.00
2018-05-25T12:35:18.274Z,3.70
2018-05-25T12:37:11.917Z,3.70
2018-05-25T12:38:11.172Z,3.80
2018-05-25T12:40:04.006Z,3.70
2018-05-25T12:41:03.889Z,3.60
2018-05-25T12:42:56.727Z,3.80
2018-05-25T12:43:56.647Z,3.60
2018-05-25T12:45:49.459Z,3.90
2018-05-25T12:46:49.379Z,3.60
2018-05-25T12:48:42.736Z,4.20
2018-05-25T12:49:42.632Z,4.00
2018-05-25T12:51:35.471Z,4.10
2018-05-25T12:52:35.441Z,4.20
2018-05-25T12:54:28.230Z,4.00
2018-05-25T12:55:28.147Z,3.90
2018-05-25T12:57:20.988Z,3.80
2018-05-25T12:58:20.885Z,3.80
2018-05-25T13:00:13.739Z,3.70
2018-05-25T13:01:13.655Z,3.60
2018-05-25T13:03:06.519Z,3.60
2018-05-25T13:04:06.381Z,3.30
2018-05-25T13:05:59.238Z,3.40
2018-05-25T13:06:59.241Z,3.40
2018-05-25T13:08:51.971Z,3.30
2018-05-25T13:09:51.883Z,3.20
2018-05-25T13:11:44.733Z,3.10
2018-05-25T13:12:44.644Z,3.00
2018-05-25T13:14:37.470Z,3.10
2018-05-25T13:15:37.390Z,3.60
2018-05-25T13:17:30.252Z,3.30
2018-05-25T13:18:30.133Z,3.10
2018-05-25T13:20:22.961Z,3.30
2018-05-25T13:21:22.885Z,3.40
2018-05-25T13:23:15.746Z,3.10
2018-05-25T13:24:15.686Z,2.90
2018-05-25T13:26:08.487Z,3.00
2018-05-25T13:27:08.409Z,3.40
2018-05-25T13:29:01.758Z,3.20
2018-05-25T13:30:01.681Z,3.40
2018-05-25T13:31:54.517Z,3.20
2018-05-25T13:32:54.418Z,3.30
2018-05-25T13:34:47.238Z,3.20
2018-05-25T13:35:47.162Z,3.60
2018-05-25T13:37:39.981Z,3.30
2018-05-25T13:38:39.891Z,3.40
2018-05-25T13:40:32.759Z,3.10
2018-05-25T13:41:33.018Z,3.20
2018-05-25T13:43:25.599Z,3.30
2018-05-25T13:44:25.530Z,3.20
2018-05-25T13:46:18.363Z,3.20
2018-05-25T13:47:18.244Z,3.30
2018-05-25T13:49:11.625Z,3.30
2018-05-25T13:50:11.517Z,3.30
2018-05-25T13:52:04.392Z,3.10
2018-05-25T13:53:04.342Z,3.10
2018-05-25T13:54:57.098Z,2.90
2018-05-25T13:55:57.014Z,3.30
2018-05-25T13:57:49.841Z,2.90
2018-05-25T13:58:49.748Z,3.10
2018-05-25T14:00:42.594Z,3.10
2018-05-25T14:01:42.505Z,3.40
2018-05-25T14:03:35.352Z,3.10
2018-05-25T14:04:35.259Z,3.10
2018-05-25T14:06:28.612Z,3.20
2018-05-25T14:07:28.517Z,3.00
2018-05-25T14:09:21.343Z,3.00
2018-05-25T14:10:21.259Z,3.20
2018-05-25T14:12:14.223Z,3.30
2018-05-25T14:13:14.014Z,2.90
2018-05-25T14:15:06.878Z,2.90
2018-05-25T14:16:06.763Z,2.90
2018-05-25T14:17:59.708Z,3.20
2018-05-25T14:18:59.636Z,3.10
2018-05-25T14:20:52.471Z,3.10
2018-05-25T14:21:52.365Z,2.90
2018-05-25T14:23:45.198Z,2.90
2018-05-25T14:24:45.135Z,2.70
2018-05-25T14:26:38.529Z,3.00
2018-05-25T14:27:37.967Z,2.80
2018-05-25T14:29:30.696Z,2.80
2018-05-25T14:30:30.622Z,2.90
2018-05-25T14:32:23.488Z,3.10
2018-05-25T14:33:23.364Z,2.90
2018-05-25T14:35:16.198Z,3.00
2018-05-25T14:36:16.253Z,2.80
2018-05-25T14:38:08.953Z,2.90
2018-05-25T14:39:08.873Z,2.80
2018-05-25T14:41:01.724Z,3.00
2018-05-25T14:42:01.637Z,2.80
2018-05-25T14:43:54.460Z,3.10
2018-05-25T14:44:54.368Z,3.10
2018-05-25T14:46:47.191Z,2.90
2018-05-25T14:47:47.119Z,3.00
2018-05-25T14:49:39.957Z,2.80
2018-05-25T14:50:39.863Z,3.20
2018-05-25T14:52:32.752Z,2.60
2018-05-25T14:53:32.624Z,2.90
2018-05-25T14:55:25.444Z,2.80
2018-05-25T14:56:25.367Z,3.00
2018-05-25T14:58:18.248Z,2.70
2018-05-25T14:59:18.170Z,2.80
2018-05-25T15:01:10.936Z,3.10
2018-05-25T15:02:10.921Z,3.00
2018-05-25T15:04:03.711Z,2.70
2018-05-25T15:05:03.619Z,3.50
2018-05-25T15:06:56.449Z,3.00
2018-05-25T15:07:56.377Z,3.00
2018-05-25T15:09:49.207Z,2.80
2018-05-25T15:10:49.100Z,2.90
2018-05-25T15:12:41.930Z,2.70
2018-05-25T15:13:41.863Z,2.80
2018-05-25T15:15:34.721Z,2.70
2018-05-25T15:16:34.607Z,2.60
2018-05-25T15:18:27.450Z,3.00
2018-05-25T15:19:27.372Z,2.80
2018-05-25T15:21:20.198Z,2.80
2018-05-25T15:22:20.105Z,2.80
2018-05-25T15:24:12.961Z,2.80
2018-05-25T15:25:12.848Z,2.90
2018-05-25T15:27:05.704Z,3.60
2018-05-25T15:28:05.603Z,3.40
2018-05-25T15:29:58.445Z,3.00
2018-05-25T15:30:58.488Z,2.90
2018-05-25T15:32:51.183Z,2.70
2018-05-25T15:33:51.101Z,2.70
2018-05-25T15:35:43.993Z,3.20
2018-05-25T15:36:43.866Z,2.70
2018-05-25T15:38:36.678Z,3.00
2018-05-25T15:39:36.600Z,3.10
2018-05-25T15:41:29.445Z,2.90
2018-05-25T15:42:29.350Z,2.80
2018-05-25T15:44:22.686Z,2.70
2018-05-25T15:45:22.632Z,2.80
2018-05-25T15:47:15.970Z,2.60
2018-05-25T15:48:15.872Z,2.50
2018-05-25T15:50:08.762Z,2.60
2018-05-25T15:51:08.626Z,2.30
2018-05-25T15:53:01.467Z,2.90
2018-05-25T15:54:01.967Z,2.70
2018-05-25T15:55:54.202Z,2.70
2018-05-25T15:56:54.140Z,3.30
2018-05-25T15:58:46.970Z,3.30
2018-05-25T15:59:46.899Z,2.70
2018-05-25T16:01:39.818Z,4.00
2018-05-25T16:02:39.722Z,3.00
2018-05-25T16:04:32.652Z,2.90
2018-05-25T16:05:32.571Z,2.90
2018-05-25T16:07:25.535Z,2.70
2018-05-25T16:08:25.418Z,2.70
2018-05-25T16:10:18.398Z,2.60
2018-05-25T16:11:18.290Z,2.80
2018-05-25T16:13:11.242Z,2.60
2018-05-25T16:14:11.169Z,2.70
2018-05-25T16:16:04.106Z,2.90
2018-05-25T16:17:03.976Z,2.90
2018-05-25T16:18:56.942Z,2.60
2018-05-25T16:19:56.841Z,2.80
2018-05-25T16:21:49.775Z,2.30
2018-05-25T16:22:49.709Z,2.30
2018-05-25T16:24:42.645Z,2.20
2018-05-25T16:25:42.553Z,2.40
2018-05-25T16:27:35.505Z,2.30
2018-05-25T16:28:35.392Z,2.20
2018-05-25T16:30:28.350Z,2.30
2018-05-25T16:31:28.264Z,2.20
2018-05-25T16:33:21.186Z,2.40
2018-05-25T16:34:21.093Z,2.30
2018-05-25T16:36:14.685Z,2.50
2018-05-25T16:37:13.954Z,2.70
2018-05-25T16:39:06.887Z,2.50
2018-05-25T16:40:06.812Z,2.60
2018-05-25T16:42:00.269Z,2.50
2018-05-25T16:43:00.177Z,2.70
2018-05-25T16:44:53.128Z,2.60
2018-05-25T16:45:53.015Z,2.40
2018-05-25T16:47:45.949Z,2.50
2018-05-25T16:48:45.887Z,2.50
2018-05-25T16:50:38.898Z,2.50
2018-05-25T16:51:38.738Z,2.50
2018-05-25T16:53:31.653Z,2.70
2018-05-25T16:54:31.580Z,2.60
2018-05-25T16:56:24.458Z,2.70
2018-05-25T16:57:24.705Z,2.80
2018-05-25T16:59:17.194Z,2.80
2018-05-25T17:00:17.080Z,2.50
2018-05-25T17:02:09.932Z,2.40
2018-05-25T17:03:09.829Z,2.80
2018-05-25T17:05:02.723Z,2.40
2018-05-25T17:06:02.577Z,2.40
2018-05-25T17:07:55.418Z,2.40
2018-05-25T17:08:55.328Z,2.60
2018-05-25T17:10:48.269Z,2.60
2018-05-25T17:11:48.164Z,2.70
2018-05-25T17:13:41.023Z,2.30
2018-05-25T17:14:40.924Z,2.70
2018-05-25T17:16:33.758Z,2.70
2018-05-25T17:17:33.691Z,2.70
2018-05-25T17:19:26.541Z,2.30
2018-05-25T17:20:26.435Z,2.60
2018-05-25T17:22:19.402Z,2.60
2018-05-25T17:23:19.278Z,2.60
2018-05-25T17:25:12.126Z,2.20
2018-05-25T17:26:12.027Z,2.60
2018-05-25T17:28:04.874Z,2.40
2018-05-25T17:29:04.776Z,2.60
2018-05-25T17:30:58.130Z,2.60
2018-05-25T17:31:58.041Z,2.40
2018-05-25T17:33:50.881Z,2.50
2018-05-25T17:34:50.782Z,2.70
2018-05-25T17:36:43.764Z,2.50
2018-05-25T17:37:43.638Z,2.50
2018-05-25T17:39:36.494Z,2.30
2018-05-25T17:40:36.395Z,2.60
2018-05-25T17:42:29.233Z,2.70
2018-05-25T17:43:29.168Z,2.40
2018-05-25T17:45:21.992Z,2.30
2018-05-25T17:46:21.909Z,2.70
2018-05-25T17:48:16.390Z,2.70
2018-05-25T17:49:16.208Z,2.80
2018-05-25T17:51:09.634Z,2.90
2018-05-25T17:52:09.638Z,3.10
2018-05-25T17:54:02.484Z,3.00
2018-05-25T17:55:02.512Z,2.90
2018-05-25T17:56:55.155Z,3.00
2018-05-25T17:57:55.047Z,2.70
2018-05-25T17:59:47.895Z,3.00
2018-05-25T18:00:47.797Z,2.90
2018-05-25T18:02:40.659Z,3.20
2018-05-25T18:03:40.548Z,3.00
2018-05-25T18:05:33.433Z,3.20
2018-05-25T18:06:33.293Z,3.30
2018-05-25T18:08:26.130Z,3.10
2018-05-25T18:09:26.040Z,3.20
2018-05-25T18:11:19.420Z,3.00
2018-05-25T18:12:19.302Z,3.40
2018-05-25T18:14:12.138Z,3.30
2018-05-25T18:15:12.044Z,3.20
2018-05-25T18:17:04.898Z,3.20
2018-05-25T18:18:04.808Z,3.30
2018-05-25T18:19:58.161Z,3.20
2018-05-25T18:20:58.059Z,3.20
2018-05-25T18:22:50.899Z,3.30
2018-05-25T18:23:50.805Z,3.10
2018-05-25T18:25:43.671Z,3.60
2018-05-25T18:26:43.573Z,3.60
2018-05-25T18:28:36.416Z,3.10
2018-05-25T18:29:36.313Z,3.40
2018-05-25T18:31:29.143Z,3.20
2018-05-25T18:32:29.054Z,3.30
2018-05-25T18:34:21.887Z,3.60
2018-05-25T18:35:21.799Z,3.50
2018-05-25T18:37:14.645Z,3.40
2018-05-25T18:38:14.550Z,3.50
2018-05-25T18:40:07.395Z,3.60
2018-05-25T18:41:07.295Z,3.30
2018-05-25T18:43:00.154Z,3.60
2018-05-25T18:44:00.061Z,3.50
2018-05-25T18:45:52.880Z,3.80
2018-05-25T18:46:52.809Z,3.60
2018-05-25T18:48:45.677Z,3.60
2018-05-25T18:49:45.552Z,3.60
2018-05-25T18:51:39.320Z,4.00
2018-05-25T18:52:38.326Z,3.60
2018-05-25T18:54:31.129Z,3.50
2018-05-25T18:55:31.046Z,3.70
2018-05-25T18:57:23.895Z,3.70
2018-05-25T18:58:23.799Z,3.50
2018-05-25T19:00:16.629Z,3.60
2018-05-25T19:01:16.542Z,3.80
2018-05-25T19:03:09.391Z,3.80
2018-05-25T19:04:09.293Z,3.60
2018-05-25T19:06:02.151Z,3.30
2018-05-25T19:07:02.056Z,3.50
2018-05-25T19:08:54.930Z,3.80
2018-05-25T19:09:54.790Z,4.40